Map

Track Data

SID SEASON NUMBER BASIN SUBBASIN NAME ISO_TIME NATURE LAT LON WMO_WIND WMO_PRES WMO_AGENCY TRACK_TYPE DIST2LAND LANDFALL IFLAG USA_AGENCY USA_ATCF_ID USA_LAT USA_LON USA_RECORD USA_STATUS USA_WIND USA_PRES USA_SSHS USA_R34_NE USA_R34_SE USA_R34_SW USA_R34_NW USA_R50_NE USA_R50_SE USA_R50_SW USA_R50_NW USA_R64_NE USA_R64_SE USA_R64_SW USA_R64_NW USA_POCI USA_ROCI USA_RMW USA_EYE TOKYO_LAT TOKYO_LON TOKYO_GRADE TOKYO_WIND TOKYO_PRES TOKYO_R50_DIR TOKYO_R50_LONG TOKYO_R50_SHORT TOKYO_R30_DIR TOKYO_R30_LONG TOKYO_R30_SHORT TOKYO_LAND CMA_LAT CMA_LON CMA_CAT CMA_WIND CMA_PRES HKO_LAT HKO_LON HKO_CAT HKO_WIND HKO_PRES NEWDELHI_LAT NEWDELHI_LON NEWDELHI_GRADE NEWDELHI_WIND NEWDELHI_PRES NEWDELHI_CI NEWDELHI_DP NEWDELHI_POCI REUNION_LAT REUNION_LON REUNION_TYPE REUNION_WIND REUNION_PRES REUNION_TNUM REUNION_CI REUNION_RMW REUNION_R34_NE REUNION_R34_SE REUNION_R34_SW REUNION_R34_NW REUNION_R50_NE REUNION_R50_SE REUNION_R50_SW REUNION_R50_NW REUNION_R64_NE REUNION_R64_SE REUNION_R64_SW REUNION_R64_NW BOM_LAT BOM_LON BOM_TYPE BOM_WIND BOM_PRES BOM_TNUM BOM_CI BOM_RMW BOM_R34_NE BOM_R34_SE BOM_R34_SW BOM_R34_NW BOM_R50_NE BOM_R50_SE BOM_R50_SW BOM_R50_NW BOM_R64_NE BOM_R64_SE BOM_R64_SW BOM_R64_NW BOM_ROCI BOM_POCI BOM_EYE BOM_POS_METHOD BOM_PRES_METHOD NADI_LAT NADI_LON NADI_CAT NADI_WIND NADI_PRES WELLINGTON_LAT WELLINGTON_LON WELLINGTON_WIND WELLINGTON_PRES DS824_LAT DS824_LON DS824_STAGE DS824_WIND DS824_PRES TD9636_LAT TD9636_LON TD9636_STAGE TD9636_WIND TD9636_PRES TD9635_LAT TD9635_LON TD9635_WIND TD9635_PRES TD9635_ROCI NEUMANN_LAT NEUMANN_LON NEUMANN_CLASS NEUMANN_WIND NEUMANN_PRES MLC_LAT MLC_LON MLC_CLASS MLC_WIND MLC_PRES USA_GUST BOM_GUST BOM_GUST_PER REUNION_GUST REUNION_GUST_PER USA_SEAHGT USA_SEARAD_NE USA_SEARAD_SE USA_SEARAD_SW USA_SEARAD_NW STORM_SPEED STORM_DIR
1945315N06076 1945 75 NI AS NOT_NAMED 1945-11-10 18:00:00 TS 6.20000 76.2000 main 245 245 O________O____ jtwc_io IO121945 6.20000 76.2000 -1 6.20000 76.2000 TC 1 301
1945315N06076 1945 75 NI AS NOT_NAMED 1945-11-10 21:00:00 TS 6.23503 76.1425 main 250 241 P________P____ IO121945 6.23503 76.1425 -1 6.23503 76.1425 TC 2 297
1945315N06076 1945 75 NI AS NOT_NAMED 1945-11-11 00:00:00 TS 6.30000 76.0000 main 247 245 O________O____ jtwc_io IO121945 6.30000 76.0000 -1 6.30000 76.0000 TC 25 5 292
1945315N06076 1945 75 NI AS NOT_NAMED 1945-11-11 03:00:00 TS 6.41767 75.6977 main 259 259 P________PO___ IO121945 6.41988 75.6974 -1 6.41988 75.6974 TC 25 6.40000 75.7000 1 9 290
1945315N06076 1945 75 NI AS NOT_NAMED 1945-11-11 06:00:00 TS 6.61023 75.1564 main 283 283 O________OP___ jtwc_io IO121945 6.60000 75.2000 -1 6.60000 75.2000 TC 25 6.65114 74.9821 1 14 289
1945315N06076 1945 75 NI AS NOT_NAMED 1945-11-11 09:00:00 TS 6.86974 74.3877 main 322 322 P________PP___ IO121945 6.86540 74.4128 -1 6.86540 74.4128 TC 25 6.88132 74.3209 1 15 289
1945315N06076 1945 75 NI AS NOT_NAMED 1945-11-11 12:00:00 TS 7.09026 73.7247 main 368 368 O________OP___ jtwc_io IO121945 7.10000 73.7000 -1 7.10000 73.7000 TC 25 7.07077 73.7742 1 10 289
1945315N06076 1945 75 NI AS NOT_NAMED 1945-11-11 15:00:00 TS 7.19153 73.4249 main 391 391 P________PO___ IO121945 7.18729 73.4374 -1 7.18729 73.4374 TC 25 7.20000 73.4000 1 4 289
1945315N06076 1945 75 NI AS NOT_NAMED 1945-11-11 18:00:00 TS 7.21902 73.3448 main 400 400 O________OP___ jtwc_io IO121945 7.20000 73.4000 -1 7.20000 73.4000 TC 25 7.25705 73.2345 1 1 289
1945315N06076 1945 75 NI AS NOT_NAMED 1945-11-11 21:00:00 TS 7.22484 73.3274 main 400 391 P________PP___ IO121945 7.20749 73.3775 -1 7.20749 73.3775 TC 25 7.25953 73.2272 1 0 0
1945315N06076 1945 75 NI AS NOT_NAMED 1945-11-12 00:00:00 TS 7.21075 73.3688 main 391 391 O________OP___ jtwc_io IO121945 7.20000 73.4000 -1 7.20000 73.4000 TC 25 7.23225 73.3064 1 1 111
1945315N06076 1945 75 NI AS NOT_NAMED 1945-11-12 03:00:00 TS 7.20000 73.4000 main 391 391 P________PO___ IO121945 7.20000 73.4000 -1 7.20000 73.4000 TC 25 7.20000 73.4000 1 0 106
1945315N06076 1945 75 NI AS NOT_NAMED 1945-11-12 06:00:00 TS 7.20000 73.4000 main 391 391 O________OP___ jtwc_io IO121945 7.20000 73.4000 -1 7.20000 73.4000 TC 25 7.20000 73.4000 1 0 0
1945315N06076 1945 75 NI AS NOT_NAMED 1945-11-12 09:00:00 TS 7.20000 73.4000 main 391 391 P________PP___ IO121945 7.20000 73.4000 -1 7.20000 73.4000 TC 25 7.20000 73.4000 1 0 0
1945315N06076 1945 75 NI AS NOT_NAMED 1945-11-12 12:00:00 TS 7.20000 73.4000 main 391 391 O________OP___ jtwc_io IO121945 7.20000 73.4000 -1 7.20000 73.4000 TC 25 7.20000 73.4000 1 0 0
1945315N06076 1945 75 NI AS NOT_NAMED 1945-11-12 15:00:00 TS 7.20000 73.4000 main 391 391 P________PO___ IO121945 7.20000 73.4000 -1 7.20000 73.4000 TC 25 7.20000 73.4000 1 0 0
1945315N06076 1945 75 NI AS NOT_NAMED 1945-11-12 18:00:00 TS 7.20000 73.4000 main 391 391 O________OP___ jtwc_io IO121945 7.20000 73.4000 -1 7.20000 73.4000 TC 25 7.20000 73.4000 1 0 0
1945315N06076 1945 75 NI AS NOT_NAMED 1945-11-12 21:00:00 TS 7.20000 73.4000 main 391 391 P________PP___ IO121945 7.20000 73.4000 -1 7.20000 73.4000 TC 25 7.20000 73.4000 1 0 0
1945315N06076 1945 75 NI AS NOT_NAMED 1945-11-13 00:00:00 TS 7.20000 73.4000 main 391 391 O________OP___ jtwc_io IO121945 7.20000 73.4000 -1 7.20000 73.4000 TC 25 7.20000 73.4000 1 0 0
1945315N06076 1945 75 NI AS NOT_NAMED 1945-11-13 03:00:00 TS 7.20000 73.4000 main 391 391 P________PO___ IO121945 7.20000 73.4000 -1 7.20000 73.4000 TC 25 7.20000 73.4000 1 0 0
1945315N06076 1945 75 NI AS NOT_NAMED 1945-11-13 06:00:00 TS 7.20000 73.4000 main 391 391 O________OP___ jtwc_io IO121945 7.20000 73.4000 -1 7.20000 73.4000 TC 25 7.20000 73.4000 1 0 0
1945315N06076 1945 75 NI AS NOT_NAMED 1945-11-13 09:00:00 TS 7.20000 73.4000 main 391 391 P________PP___ IO121945 7.20000 73.4000 -1 7.20000 73.4000 TC 25 7.20000 73.4000 1 0 0
1945315N06076 1945 75 NI AS NOT_NAMED 1945-11-13 12:00:00 TS 7.20000 73.4000 main 391 391 O________OP___ jtwc_io IO121945 7.20000 73.4000 -1 7.20000 73.4000 TC 25 7.20000 73.4000 1 0 0
1945315N06076 1945 75 NI AS NOT_NAMED 1945-11-13 15:00:00 TS 7.20000 73.4000 main 391 381 P________PO___ IO121945 7.20000 73.4000 -1 7.20000 73.4000 TC 25 7.20000 73.4000 1 1 111
1945315N06076 1945 75 NI AS NOT_NAMED 1945-11-13 18:00:00 TS 7.17118 73.4686 main 381 377 O________OP___ jtwc_io IO121945 7.20000 73.4000 -1 7.20000 73.4000 TC 25 7.11353 73.6058 1 2 114
1945315N06076 1945 75 NI AS NOT_NAMED 1945-11-13 21:00:00 TS 7.13175 73.5565 main 377 377 P________PP___ IO121945 7.17747 73.4450 -1 7.17747 73.4450 TC 25 7.04033 73.7797 1 1 113
1945315N06076 1945 75 NI AS NOT_NAMED 1945-11-14 00:00:00 TS 7.14899 73.5213 main 387 381 O________OP___ jtwc_io IO121945 7.20000 73.4000 -1 7.20000 73.4000 TC 25 7.04698 73.7639 1 2 298
1945315N06076 1945 75 NI AS NOT_NAMED 1945-11-14 03:00:00 TS 7.23437 73.3593 main 391 391 P________PO___ IO121945 7.25155 73.3389 -1 7.25155 73.3389 TC 25 7.20000 73.4000 1 9 295
1945315N06076 1945 75 NI AS NOT_NAMED 1945-11-14 06:00:00 TS 7.54613 72.6727 main 447 447 O________OP___ jtwc_io IO121945 7.50000 72.8000 -1 7.50000 72.8000 TC 25 7.63839 72.4180 1 23 294
1945315N06076 1945 75 NI AS NOT_NAMED 1945-11-14 09:00:00 TS 8.14639 71.2458 main 579 576 P________PP___ IO121945 8.11432 71.3213 -1 8.11432 71.3213 TC 25 8.21052 71.0948 1 33 293
1945315N06076 1945 75 NI AS NOT_NAMED 1945-11-14 12:00:00 TS 8.80057 69.6162 main 709 709 O________OP___ jtwc_io IO121945 8.80000 69.6000 -1 8.80000 69.6000 TC 25 8.80172 69.6486 1 31 292
1945315N06076 1945 75 NI AS NOT_NAMED 1945-11-14 15:00:00 TS 9.28277 68.3582 main 800 800 P________PO___ IO121945 9.27415 68.3873 -1 9.27415 68.3873 TC 25 9.30000 68.3000 1 24 290
1945315N06076 1945 75 NI AS NOT_NAMED 1945-11-14 18:00:00 TS 9.60948 67.3282 main 893 893 O________OP___ jtwc_io IO121945 9.60000 67.4000 -1 9.60000 67.4000 TC 25 9.62370 67.2206 1 19 285
1945315N06076 1945 75 NI AS NOT_NAMED 1945-11-14 21:00:00 TS 9.79242 66.4632 main 965 965 P________PP___ IO121945 9.78809 66.5250 -1 9.78809 66.5250 TC 25 9.79819 66.3807 1 16 280
1945315N06076 1945 75 NI AS NOT_NAMED 1945-11-15 00:00:00 TS 9.88694 65.7003 main 1044 1044 O________OP___ jtwc_io IO121945 9.90000 65.7000 -1 9.90000 65.7000 TC 25 9.87388 65.7006 1 13 275
1945315N06076 1945 75 NI AS NOT_NAMED 1945-11-15 03:00:00 NR 9.90000 65.1000 main 1106 __________O___ IO121945 -1 TC 9.90000 65.1000 1 12 271

About IBTrACS Database

This database is a web-friendly format of International Best Track Archive for Climate Stewardship (IBTrACS), a global best track data archive curated by NOAA dating back to 1842.

Updated: 2021-12-03